createdAt,value
2018-06-17T00:00:10.240Z,59.00
2018-06-17T00:02:39.003Z,59.30
2018-06-17T00:05:07.754Z,59.30
2018-06-17T00:07:36.476Z,59.40
2018-06-17T00:10:05.627Z,60.00
2018-06-17T00:12:36.652Z,59.50
2018-06-17T00:15:05.797Z,59.70
2018-06-17T00:17:34.598Z,59.70
2018-06-17T00:20:03.955Z,59.70
2018-06-17T00:22:32.703Z,59.80
2018-06-17T00:25:01.216Z,59.80
2018-06-17T00:27:29.797Z,59.90
2018-06-17T00:29:58.362Z,59.80
2018-06-17T00:32:26.881Z,59.80
2018-06-17T00:34:55.404Z,59.70
2018-06-17T00:37:23.897Z,59.70
2018-06-17T00:39:52.367Z,59.70
2018-06-17T00:42:20.870Z,59.70
2018-06-17T00:44:49.437Z,59.70
2018-06-17T00:47:17.970Z,59.70
2018-06-17T00:49:46.477Z,59.70
2018-06-17T00:52:15.018Z,59.80
2018-06-17T00:54:43.553Z,59.90
2018-06-17T00:57:23.366Z,60.10
2018-06-17T00:59:51.892Z,60.20
2018-06-17T01:02:20.376Z,60.30
2018-06-17T01:04:48.890Z,60.30
2018-06-17T01:07:17.371Z,60.20
2018-06-17T01:09:45.899Z,60.20
2018-06-17T01:12:14.388Z,60.20
2018-06-17T01:14:42.891Z,60.50
2018-06-17T01:17:11.421Z,60.80
2018-06-17T01:19:40.001Z,60.90
2018-06-17T01:22:08.583Z,60.90
2018-06-17T01:24:37.151Z,61.00
2018-06-17T01:27:05.693Z,61.10
2018-06-17T01:29:34.267Z,61.20
2018-06-17T01:32:02.796Z,61.40
2018-06-17T01:34:31.606Z,61.50
2018-06-17T01:37:00.172Z,61.50
2018-06-17T01:39:28.729Z,61.50
2018-06-17T01:41:57.181Z,61.50
2018-06-17T01:44:25.624Z,61.60
2018-06-17T01:46:54.136Z,61.70
2018-06-17T01:49:22.632Z,61.80
2018-06-17T01:51:51.112Z,62.00
2018-06-17T01:54:19.560Z,62.00
2018-06-17T01:56:48.096Z,62.10
2018-06-17T01:59:16.606Z,61.90
2018-06-17T02:01:45.114Z,62.00
2018-06-17T02:04:18.730Z,62.10
2018-06-17T02:07:52.741Z,62.10
2018-06-17T02:10:26.465Z,62.20
2018-06-17T02:12:54.958Z,62.10
2018-06-17T02:15:23.456Z,62.10
2018-06-17T02:17:51.919Z,62.20
2018-06-17T02:20:20.409Z,62.20
2018-06-17T02:22:48.903Z,62.30
2018-06-17T02:25:17.354Z,62.40
2018-06-17T02:27:45.830Z,62.40
2018-06-17T02:30:14.300Z,62.50
2018-06-17T02:32:42.792Z,62.90
2018-06-17T02:35:11.294Z,62.70
2018-06-17T02:37:39.754Z,62.60
2018-06-17T02:40:08.247Z,62.70
2018-06-17T02:42:36.710Z,62.80
2018-06-17T02:45:10.488Z,62.80
2018-06-17T02:47:44.255Z,62.80
2018-06-17T02:50:18.127Z,62.90
2018-06-17T02:52:51.992Z,63.10
2018-06-17T02:55:20.477Z,63.10
2018-06-17T02:57:48.997Z,63.20
2018-06-17T03:00:17.497Z,63.30
2018-06-17T03:02:45.953Z,63.30
2018-06-17T03:05:14.471Z,63.50
2018-06-17T03:07:43.755Z,63.50
2018-06-17T03:10:12.262Z,63.50
2018-06-17T03:12:40.732Z,63.50
2018-06-17T03:15:09.216Z,63.60
2018-06-17T03:17:37.686Z,63.70
2018-06-17T03:20:06.138Z,63.60
2018-06-17T03:22:34.571Z,63.70
2018-06-17T03:25:08.245Z,63.60
2018-06-17T03:27:41.949Z,63.60
2018-06-17T03:32:49.141Z,63.50
2018-06-17T03:35:23.067Z,63.40
2018-06-17T03:37:51.535Z,63.50
2018-06-17T03:40:20.014Z,63.50
2018-06-17T03:45:16.660Z,63.70
2018-06-17T03:47:45.076Z,63.60
2018-06-17T03:50:13.538Z,63.60
2018-06-17T03:52:41.944Z,63.70
2018-06-17T03:55:10.422Z,63.70
2018-06-17T03:57:38.864Z,63.70
2018-06-17T04:00:07.295Z,63.70
2018-06-17T04:02:35.755Z,63.90
2018-06-17T04:05:09.617Z,63.80
2018-06-17T04:07:38.131Z,63.80
2018-06-17T04:10:06.586Z,63.90
2018-06-17T04:12:35.201Z,63.90
2018-06-17T04:15:03.667Z,63.90
2018-06-17T04:17:32.126Z,63.90
2018-06-17T04:20:00.558Z,63.90
2018-06-17T04:22:29.042Z,63.90
2018-06-17T04:24:57.605Z,63.90
2018-06-17T04:27:26.065Z,63.90
2018-06-17T04:29:54.502Z,63.90
2018-06-17T04:32:22.977Z,64.00
2018-06-17T04:34:51.497Z,64.10
2018-06-17T04:37:20.030Z,64.20
2018-06-17T04:39:48.527Z,64.10
2018-06-17T04:42:17.004Z,63.80
2018-06-17T04:44:45.501Z,63.70
2018-06-17T04:47:13.932Z,63.60
2018-06-17T04:49:42.394Z,63.50
2018-06-17T04:52:10.844Z,63.50
2018-06-17T04:54:39.353Z,63.50
2018-06-17T04:57:07.854Z,63.40
2018-06-17T04:59:36.370Z,63.40
2018-06-17T05:02:04.855Z,63.40
2018-06-17T05:04:33.367Z,63.40
2018-06-17T05:07:02.265Z,63.50
2018-06-17T05:09:30.752Z,63.60
2018-06-17T05:11:59.239Z,63.50
2018-06-17T05:14:27.686Z,63.50
2018-06-17T05:16:56.149Z,63.50
2018-06-17T05:19:24.632Z,63.60
2018-06-17T05:21:53.113Z,63.50
2018-06-17T05:24:21.594Z,63.50
2018-06-17T05:26:50.035Z,64.30
2018-06-17T05:29:18.534Z,63.50
2018-06-17T05:31:46.999Z,63.60
2018-06-17T05:34:15.495Z,63.40
2018-06-17T05:36:43.948Z,63.50
2018-06-17T05:41:41.614Z,63.50
2018-06-17T05:44:10.130Z,63.40
2018-06-17T05:46:38.596Z,63.30
2018-06-17T05:49:07.380Z,63.50
2018-06-17T05:51:35.918Z,63.50
2018-06-17T05:54:04.509Z,63.30
2018-06-17T05:56:32.967Z,63.20
2018-06-17T05:59:01.484Z,63.20
2018-06-17T06:01:29.970Z,63.30
2018-06-17T06:03:58.488Z,63.30
2018-06-17T06:06:27.014Z,63.20
2018-06-17T06:08:55.465Z,63.20
2018-06-17T06:11:23.934Z,63.80
2018-06-17T06:13:52.399Z,62.90
2018-06-17T06:16:20.920Z,62.80
2018-06-17T06:18:49.499Z,63.00
2018-06-17T06:21:17.965Z,62.90
2018-06-17T06:23:46.479Z,62.90
2018-06-17T06:26:14.964Z,63.00
2018-06-17T06:28:43.534Z,62.90
2018-06-17T06:31:12.094Z,62.80
2018-06-17T06:33:40.580Z,62.80
2018-06-17T06:36:09.038Z,62.70
2018-06-17T06:38:37.667Z,62.70
2018-06-17T06:41:06.152Z,62.60
2018-06-17T06:43:34.790Z,62.60
2018-06-17T06:46:03.258Z,62.40
2018-06-17T06:48:31.828Z,62.40
2018-06-17T06:51:00.371Z,62.20
2018-06-17T06:53:28.825Z,61.90
2018-06-17T06:55:57.285Z,61.60
2018-06-17T06:58:26.555Z,61.50
2018-06-17T07:00:55.049Z,61.70
2018-06-17T07:03:34.708Z,61.60
2018-06-17T07:06:14.284Z,61.30
2018-06-17T07:11:01.496Z,61.10
2018-06-17T07:13:29.995Z,61.00
2018-06-17T07:16:09.712Z,61.20
2018-06-17T07:18:41.927Z,60.70
2018-06-17T07:21:10.866Z,60.30
2018-06-17T07:23:39.328Z,60.00
2018-06-17T07:26:43.577Z,59.80
2018-06-17T07:29:24.670Z,59.70
2018-06-17T07:31:53.214Z,59.60
2018-06-17T07:34:21.728Z,59.80
2018-06-17T07:36:50.265Z,59.80
2018-06-17T07:40:59.124Z,59.80
2018-06-17T07:43:27.597Z,59.70
2018-06-17T07:45:56.059Z,60.10
2018-06-17T07:49:48.504Z,59.60
2018-06-17T07:52:29.607Z,59.90
2018-06-17T07:54:58.248Z,60.00
2018-06-17T07:57:27.908Z,60.10
2018-06-17T07:59:56.453Z,60.40
2018-06-17T08:02:24.939Z,60.10
2018-06-17T08:04:53.432Z,60.60
2018-06-17T08:07:21.894Z,59.70
2018-06-17T08:09:50.505Z,59.50
2018-06-17T08:12:18.981Z,59.30
2018-06-17T08:14:47.505Z,59.00
2018-06-17T08:17:16.081Z,58.90
2018-06-17T08:19:45.131Z,58.80
2018-06-17T08:22:13.893Z,58.80
2018-06-17T08:24:42.912Z,58.70
2018-06-17T08:27:11.846Z,58.60
2018-06-17T08:29:40.492Z,58.40
2018-06-17T08:32:09.071Z,58.40
2018-06-17T08:34:37.696Z,58.40
2018-06-17T08:37:06.318Z,58.20
2018-06-17T08:39:34.902Z,58.20
2018-06-17T08:42:03.536Z,58.10
2018-06-17T08:44:32.701Z,58.30
2018-06-17T08:47:01.735Z,58.20
2018-06-17T08:49:31.184Z,58.00
2018-06-17T08:52:01.275Z,58.00
2018-06-17T08:54:31.303Z,57.90
2018-06-17T08:57:00.194Z,57.70
2018-06-17T08:59:34.509Z,57.60
2018-06-17T09:02:06.112Z,57.60
2018-06-17T09:04:34.906Z,57.70
2018-06-17T09:07:04.042Z,57.60
2018-06-17T09:09:32.646Z,57.70
2018-06-17T09:12:05.536Z,57.70
2018-06-17T09:14:35.938Z,57.70
2018-06-17T09:17:13.117Z,57.70
2018-06-17T09:19:47.311Z,57.70
2018-06-17T09:22:16.153Z,57.80
2018-06-17T09:24:48.591Z,57.50
2018-06-17T09:27:19.161Z,57.20
2018-06-17T09:29:49.483Z,56.60
2018-06-17T09:32:18.185Z,56.50
2018-06-17T09:34:46.956Z,56.30
2018-06-17T09:37:15.804Z,56.20
2018-06-17T09:39:44.958Z,56.20
2018-06-17T09:42:13.406Z,56.30
2018-06-17T09:44:41.806Z,56.20
2018-06-17T09:47:10.290Z,56.00
2018-06-17T09:49:38.774Z,55.90
2018-06-17T09:52:07.311Z,55.50
2018-06-17T09:54:35.755Z,54.80
2018-06-17T09:57:04.232Z,55.00
2018-06-17T09:59:32.974Z,54.90
2018-06-17T10:02:01.473Z,55.20
2018-06-17T10:06:58.194Z,55.50
2018-06-17T10:09:26.694Z,55.60
2018-06-17T10:11:55.157Z,55.40
2018-06-17T10:14:23.629Z,55.50
2018-06-17T10:16:52.114Z,55.50
2018-06-17T10:19:21.550Z,55.60
2018-06-17T10:26:48.257Z,55.60
2018-06-17T10:29:17.235Z,55.40
2018-06-17T10:31:46.460Z,55.10
2018-06-17T10:34:14.928Z,54.70
2018-06-17T10:36:43.911Z,54.60
2018-06-17T10:39:12.379Z,54.50
2018-06-17T10:41:40.864Z,54.70
2018-06-17T10:44:10.049Z,54.50
2018-06-17T10:46:38.561Z,54.70
2018-06-17T10:49:07.035Z,54.70
2018-06-17T10:51:35.544Z,54.50
2018-06-17T10:54:04.013Z,54.50
2018-06-17T10:56:32.538Z,54.10
2018-06-17T11:06:25.609Z,54.30
2018-06-17T11:08:54.121Z,53.80
2018-06-17T11:11:22.612Z,53.70
2018-06-17T11:13:51.082Z,53.50
2018-06-17T11:16:19.597Z,53.30
2018-06-17T11:18:48.102Z,53.00
2018-06-17T11:23:44.734Z,53.10
2018-06-17T11:26:13.247Z,52.90
2018-06-17T11:28:41.754Z,52.90
2018-06-17T11:31:10.231Z,52.80
2018-06-17T11:33:38.724Z,52.80
2018-06-17T11:36:07.293Z,52.90
2018-06-17T11:38:35.807Z,52.80
2018-06-17T11:43:32.470Z,52.90
2018-06-17T11:46:00.912Z,53.10
2018-06-17T11:48:29.401Z,53.10
2018-06-17T11:50:57.922Z,53.00
2018-06-17T11:55:54.791Z,52.80
2018-06-17T11:58:23.509Z,52.60
2018-06-17T12:00:52.055Z,52.60
2018-06-17T12:03:20.547Z,52.60
2018-06-17T12:10:45.539Z,52.70
2018-06-17T12:13:14.008Z,52.70
2018-06-17T12:15:43.048Z,52.50
2018-06-17T12:18:11.546Z,52.30
2018-06-17T12:20:40.085Z,52.30
2018-06-17T12:23:08.537Z,52.10
2018-06-17T12:25:37.000Z,52.20
2018-06-17T12:28:05.466Z,52.20
2018-06-17T12:30:33.962Z,52.20
2018-06-17T12:33:02.589Z,52.20
2018-06-17T12:35:31.070Z,52.00
2018-06-17T12:40:27.713Z,51.90
2018-06-17T12:45:24.349Z,52.00
2018-06-17T12:47:52.827Z,51.60
2018-06-17T12:50:21.285Z,51.60
2018-06-17T12:52:49.732Z,51.60
2018-06-17T12:55:18.209Z,51.50
2018-06-17T12:57:46.707Z,51.50
2018-06-17T13:00:15.206Z,51.60
2018-06-17T13:05:11.823Z,51.60
2018-06-17T13:07:40.399Z,51.40
2018-06-17T13:10:08.908Z,51.40
2018-06-17T13:12:37.359Z,51.20
2018-06-17T13:15:06.076Z,51.20
2018-06-17T13:17:34.674Z,51.20
2018-06-17T13:20:03.170Z,51.10
2018-06-17T13:22:31.678Z,51.00
2018-06-17T13:25:00.271Z,51.10
2018-06-17T13:29:57.051Z,51.10
2018-06-17T13:32:25.607Z,51.20
2018-06-17T13:34:54.205Z,51.40
2018-06-17T13:37:22.674Z,51.40
2018-06-17T13:39:51.132Z,51.20
2018-06-17T13:42:19.618Z,51.00
2018-06-17T13:44:48.058Z,51.00
2018-06-17T13:47:16.523Z,51.00
2018-06-17T13:49:45.038Z,50.90
2018-06-17T13:52:13.640Z,50.90
2018-06-17T13:54:42.130Z,50.80
2018-06-17T13:57:10.654Z,50.70
2018-06-17T13:59:39.107Z,50.50
2018-06-17T14:02:07.586Z,50.70
2018-06-17T14:04:36.022Z,50.80
2018-06-17T14:07:04.560Z,50.90
2018-06-17T14:09:33.091Z,51.00
2018-06-17T14:12:02.120Z,51.00
2018-06-17T14:14:30.684Z,50.90
2018-06-17T14:16:59.156Z,50.90
2018-06-17T14:19:27.612Z,50.90
2018-06-17T14:21:56.068Z,51.00
2018-06-17T14:24:24.549Z,51.20
2018-06-17T14:26:53.028Z,51.20
2018-06-17T14:34:17.888Z,52.20
2018-06-17T14:36:46.424Z,51.60
2018-06-17T14:39:14.896Z,51.60
2018-06-17T14:41:43.370Z,51.60
2018-06-17T14:44:17.226Z,51.50
2018-06-17T14:46:50.953Z,51.60
2018-06-17T14:49:24.675Z,51.70
2018-06-17T14:52:25.816Z,51.80
2018-06-17T14:54:55.999Z,52.00
2018-06-17T14:59:52.703Z,52.60
2018-06-17T15:02:21.140Z,52.70
2018-06-17T15:09:46.116Z,52.90
2018-06-17T15:12:14.670Z,52.90
2018-06-17T15:14:43.219Z,53.10
2018-06-17T15:17:11.721Z,53.30
2018-06-17T15:19:40.215Z,53.20
2018-06-17T15:22:08.682Z,53.10
2018-06-17T15:24:37.224Z,53.30
2018-06-17T15:27:05.778Z,53.30
2018-06-17T15:29:34.283Z,53.30
2018-06-17T15:34:41.643Z,53.40
2018-06-17T15:37:15.501Z,53.50
2018-06-17T15:39:49.281Z,53.50
2018-06-17T15:42:18.078Z,53.20
2018-06-17T15:44:46.550Z,53.70
2018-06-17T15:47:15.527Z,53.10
2018-06-17T15:49:44.045Z,53.20
2018-06-17T15:52:12.588Z,53.20
2018-06-17T15:54:41.120Z,53.10
2018-06-17T15:57:09.646Z,53.10
2018-06-17T15:59:38.149Z,53.20
2018-06-17T16:02:06.663Z,53.20
2018-06-17T16:04:35.225Z,53.20
2018-06-17T16:07:03.830Z,52.80
2018-06-17T16:09:32.473Z,53.30
2018-06-17T16:12:06.646Z,53.30
2018-06-17T16:14:40.847Z,53.30
2018-06-17T16:17:14.800Z,53.40
2018-06-17T16:19:48.681Z,53.40
2018-06-17T16:22:17.482Z,53.30
2018-06-17T16:24:46.062Z,53.30
2018-06-17T16:27:14.670Z,53.20
2018-06-17T16:29:43.295Z,53.20
2018-06-17T16:32:11.920Z,53.30
2018-06-17T16:34:40.480Z,53.30
2018-06-17T16:37:08.977Z,53.20
2018-06-17T16:39:37.510Z,53.20
2018-06-17T16:42:06.109Z,53.30
2018-06-17T16:47:03.116Z,53.30
2018-06-17T16:49:31.735Z,53.30
2018-06-17T16:52:05.578Z,53.40
2018-06-17T16:54:39.499Z,53.30
2018-06-17T16:57:13.487Z,53.20
2018-06-17T16:59:47.454Z,53.10
2018-06-17T17:02:16.023Z,53.10
2018-06-17T17:04:44.504Z,53.00
2018-06-17T17:07:13.174Z,53.00
2018-06-17T17:12:09.842Z,53.10
2018-06-17T17:17:06.487Z,52.90
2018-06-17T17:22:03.119Z,52.90
2018-06-17T17:24:31.654Z,53.10
2018-06-17T17:27:00.111Z,53.20
2018-06-17T17:29:28.613Z,53.20
2018-06-17T17:32:02.528Z,53.20
2018-06-17T17:34:36.248Z,53.10
2018-06-17T17:37:11.386Z,53.10
2018-06-17T17:39:45.300Z,53.00
2018-06-17T17:42:13.759Z,53.00
2018-06-17T17:44:47.510Z,52.90
2018-06-17T17:47:26.054Z,52.90
2018-06-17T17:49:54.822Z,52.90
2018-06-17T17:52:23.273Z,53.00
2018-06-17T17:57:21.302Z,53.10
2018-06-17T17:59:50.711Z,53.00
2018-06-17T18:02:19.252Z,53.10
2018-06-17T18:04:47.680Z,53.10
2018-06-17T18:07:16.254Z,53.20
2018-06-17T18:09:44.683Z,53.10
2018-06-17T18:12:13.171Z,53.10
2018-06-17T18:14:41.683Z,53.00
2018-06-17T18:19:38.591Z,53.10
2018-06-17T18:22:07.058Z,53.00
2018-06-17T18:24:35.766Z,53.00
2018-06-17T18:27:09.496Z,53.10
2018-06-17T18:29:43.302Z,53.20
2018-06-17T18:32:17.187Z,53.20
2018-06-17T18:34:50.970Z,53.30
2018-06-17T18:37:19.484Z,53.30
2018-06-17T18:39:48.330Z,53.30
2018-06-17T18:42:16.958Z,53.40
2018-06-17T18:44:45.706Z,53.40
2018-06-17T18:47:14.182Z,53.40
2018-06-17T18:49:42.628Z,53.40
2018-06-17T18:52:11.138Z,53.40
2018-06-17T18:54:39.773Z,53.50
2018-06-17T18:57:08.751Z,53.40
2018-06-17T18:59:37.401Z,53.50
2018-06-17T19:02:05.884Z,53.60
2018-06-17T19:04:34.365Z,53.60
2018-06-17T19:07:02.956Z,53.60
2018-06-17T19:09:36.891Z,53.70
2018-06-17T19:12:10.826Z,53.70
2018-06-17T19:14:44.567Z,53.70
2018-06-17T19:17:18.364Z,53.80
2018-06-17T19:19:46.911Z,53.80
2018-06-17T19:22:15.424Z,53.90
2018-06-17T19:24:44.076Z,53.80
2018-06-17T19:27:12.559Z,53.80
2018-06-17T19:29:41.070Z,53.90
2018-06-17T19:32:09.530Z,53.90
2018-06-17T19:34:37.991Z,54.00
2018-06-17T19:37:06.479Z,54.00
2018-06-17T19:39:34.956Z,54.00
2018-06-17T19:42:03.491Z,54.00
2018-06-17T19:44:31.957Z,54.00
2018-06-17T19:47:00.502Z,54.00
2018-06-17T19:49:34.193Z,54.00
2018-06-17T19:52:07.859Z,53.90
2018-06-17T19:54:41.711Z,54.10
2018-06-17T19:57:15.287Z,54.00
2018-06-17T19:59:49.934Z,54.10
2018-06-17T20:02:18.457Z,54.10
2018-06-17T20:04:46.917Z,54.20
2018-06-17T20:07:15.397Z,54.20
2018-06-17T20:09:43.845Z,54.20
2018-06-17T20:12:12.295Z,54.20
2018-06-17T20:14:40.722Z,54.20
2018-06-17T20:19:37.359Z,54.60
2018-06-17T20:22:06.052Z,54.40
2018-06-17T20:24:34.504Z,54.50
2018-06-17T20:27:02.994Z,54.60
2018-06-17T20:29:31.406Z,54.60
2018-06-17T20:32:05.154Z,54.70
2018-06-17T20:34:38.966Z,54.80
2018-06-17T20:38:14.424Z,55.00
2018-06-17T20:40:48.182Z,54.90
2018-06-17T20:43:21.942Z,54.90
2018-06-17T20:45:50.418Z,55.00
2018-06-17T20:48:18.895Z,55.10
2018-06-17T20:50:47.346Z,55.20
2018-06-17T20:55:44.076Z,55.20
2018-06-17T20:58:12.534Z,55.40
2018-06-17T21:00:40.969Z,55.40
2018-06-17T21:05:37.649Z,55.60
2018-06-17T21:08:06.175Z,55.70
2018-06-17T21:10:34.662Z,55.80
2018-06-17T21:13:03.232Z,56.30
2018-06-17T21:15:31.707Z,55.80
2018-06-17T21:18:00.162Z,55.80
2018-06-17T21:20:33.852Z,56.00
2018-06-17T21:23:07.527Z,56.10
2018-06-17T21:25:41.272Z,56.00
2018-06-17T21:28:09.705Z,56.10
2018-06-17T21:30:38.182Z,56.20
2018-06-17T21:33:06.775Z,56.20
2018-06-17T21:35:35.250Z,56.30
2018-06-17T21:38:03.801Z,56.40
2018-06-17T21:40:32.279Z,56.50
2018-06-17T21:43:00.714Z,56.60
2018-06-17T21:45:29.188Z,56.70
2018-06-17T21:47:57.579Z,56.80
2018-06-17T21:50:26.099Z,56.90
2018-06-17T21:52:54.537Z,57.00
2018-06-17T21:55:23.048Z,57.00
2018-06-17T21:57:51.550Z,57.00
2018-06-17T22:00:20.006Z,57.00
2018-06-17T22:02:48.443Z,56.90
2018-06-17T22:05:16.918Z,56.80
2018-06-17T22:07:50.788Z,56.80
2018-06-17T22:10:24.529Z,56.90
2018-06-17T22:12:58.205Z,56.80
2018-06-17T22:15:31.913Z,56.80
2018-06-17T22:18:00.394Z,56.80
2018-06-17T22:20:28.909Z,56.80
2018-06-17T22:22:57.541Z,56.80
2018-06-17T22:27:54.220Z,56.80
2018-06-17T22:30:22.686Z,56.90
2018-06-17T22:35:19.489Z,56.90
2018-06-17T22:37:47.997Z,57.00
2018-06-17T22:40:16.494Z,57.00
2018-06-17T22:42:45.004Z,57.10
2018-06-17T22:47:47.138Z,57.20
2018-06-17T22:50:15.578Z,57.20
2018-06-17T22:55:18.709Z,57.30
2018-06-17T22:57:52.662Z,57.40
2018-06-17T23:00:26.480Z,57.50
2018-06-17T23:03:00.381Z,57.60
2018-06-17T23:05:34.339Z,57.60
2018-06-17T23:10:36.433Z,57.90
2018-06-17T23:13:05.066Z,58.00
2018-06-17T23:15:33.626Z,58.10
2018-06-17T23:18:02.090Z,58.20
2018-06-17T23:20:30.642Z,58.10
2018-06-17T23:22:59.133Z,58.10
2018-06-17T23:25:27.560Z,58.10
2018-06-17T23:27:56.093Z,58.00
2018-06-17T23:30:24.669Z,58.20
2018-06-17T23:32:53.576Z,58.50
2018-06-17T23:35:22.076Z,58.40
2018-06-17T23:37:50.588Z,58.40
2018-06-17T23:40:19.108Z,58.50
2018-06-17T23:42:47.677Z,58.80
2018-06-17T23:45:16.179Z,58.80
2018-06-17T23:47:49.990Z,58.90
2018-06-17T23:50:23.957Z,59.00
2018-06-17T23:55:31.285Z,59.10
2018-06-17T23:57:59.783Z,59.20
